sensor_id;sensor_type;location;lat;lon;timestamp;P1;durP1;ratioP1;P2;durP2;ratioP2
69738;SDS011;66905;51.012;4.724;2023-02-23T00:03:44;109.18;;;47.35;;
69738;SDS011;66905;51.012;4.724;2023-02-23T00:06:10;97.30;;;45.15;;
69738;SDS011;66905;51.012;4.724;2023-02-23T00:08:37;103.45;;;46.45;;
69738;SDS011;66905;51.012;4.724;2023-02-23T00:11:07;93.13;;;43.25;;
69738;SDS011;66905;51.012;4.724;2023-02-23T00:13:36;108.60;;;47.75;;
69738;SDS011;66905;51.012;4.724;2023-02-23T00:16:12;96.07;;;46.03;;
69738;SDS011;66905;51.012;4.724;2023-02-23T00:18:47;102.25;;;47.10;;
69738;SDS011;66905;51.012;4.724;2023-02-23T00:21:19;100.65;;;46.58;;
69738;SDS011;66905;51.012;4.724;2023-02-23T00:23:53;114.35;;;49.08;;
69738;SDS011;66905;51.012;4.724;2023-02-23T00:26:24;106.32;;;48.25;;
69738;SDS011;66905;51.012;4.724;2023-02-23T00:28:59;101.43;;;48.35;;
69738;SDS011;66905;51.012;4.724;2023-02-23T00:31:30;118.57;;;50.92;;
69738;SDS011;66905;51.012;4.724;2023-02-23T00:33:57;98.90;;;47.08;;
69738;SDS011;66905;51.012;4.724;2023-02-23T00:36:34;101.68;;;45.20;;
69738;SDS011;66905;51.012;4.724;2023-02-23T00:39:03;104.38;;;48.22;;
69738;SDS011;66905;51.012;4.724;2023-02-23T00:41:46;109.80;;;46.42;;
69738;SDS011;66905;51.012;4.724;2023-02-23T00:44:19;110.55;;;47.83;;
69738;SDS011;66905;51.012;4.724;2023-02-23T00:46:48;112.03;;;50.75;;
69738;SDS011;66905;51.012;4.724;2023-02-23T00:49:15;137.80;;;54.47;;
69738;SDS011;66905;51.012;4.724;2023-02-23T00:51:44;126.68;;;52.38;;
69738;SDS011;66905;51.012;4.724;2023-02-23T00:54:11;102.00;;;47.53;;
69738;SDS011;66905;51.012;4.724;2023-02-23T00:56:38;104.65;;;48.38;;
69738;SDS011;66905;51.012;4.724;2023-02-23T00:59:04;121.75;;;47.90;;
69738;SDS011;66905;51.012;4.724;2023-02-23T01:01:32;115.47;;;46.38;;
69738;SDS011;66905;51.012;4.724;2023-02-23T01:04:01;113.38;;;48.33;;
69738;SDS011;66905;51.012;4.724;2023-02-23T01:06:27;103.25;;;45.85;;
69738;SDS011;66905;51.012;4.724;2023-02-23T01:08:53;102.13;;;46.92;;
69738;SDS011;66905;51.012;4.724;2023-02-23T01:11:22;113.25;;;49.00;;
69738;SDS011;66905;51.012;4.724;2023-02-23T01:13:52;94.72;;;45.25;;
69738;SDS011;66905;51.012;4.724;2023-02-23T01:16:23;87.32;;;44.13;;
69738;SDS011;66905;51.012;4.724;2023-02-23T01:18:54;102.28;;;46.05;;
69738;SDS011;66905;51.012;4.724;2023-02-23T01:21:22;102.38;;;44.53;;
69738;SDS011;66905;51.012;4.724;2023-02-23T01:23:52;101.70;;;44.85;;
69738;SDS011;66905;51.012;4.724;2023-02-23T01:26:24;101.28;;;44.90;;
69738;SDS011;66905;51.012;4.724;2023-02-23T01:28:59;98.68;;;45.13;;
69738;SDS011;66905;51.012;4.724;2023-02-23T01:31:27;93.28;;;43.03;;
69738;SDS011;66905;51.012;4.724;2023-02-23T01:33:54;86.00;;;41.75;;
69738;SDS011;66905;51.012;4.724;2023-02-23T01:36:20;98.95;;;43.55;;
69738;SDS011;66905;51.012;4.724;2023-02-23T01:38:47;85.82;;;42.05;;
69738;SDS011;66905;51.012;4.724;2023-02-23T01:41:14;93.63;;;43.60;;
69738;SDS011;66905;51.012;4.724;2023-02-23T01:43:56;84.88;;;42.80;;
69738;SDS011;66905;51.012;4.724;2023-02-23T01:46:29;95.57;;;45.05;;
69738;SDS011;66905;51.012;4.724;2023-02-23T01:48:59;80.85;;;41.40;;
69738;SDS011;66905;51.012;4.724;2023-02-23T01:51:27;104.45;;;42.95;;
69738;SDS011;66905;51.012;4.724;2023-02-23T01:53:59;91.97;;;43.67;;
69738;SDS011;66905;51.012;4.724;2023-02-23T01:56:41;86.38;;;42.80;;
69738;SDS011;66905;51.012;4.724;2023-02-23T01:59:10;90.68;;;42.53;;
69738;SDS011;66905;51.012;4.724;2023-02-23T02:01:39;90.95;;;43.60;;
69738;SDS011;66905;51.012;4.724;2023-02-23T02:04:06;89.78;;;42.65;;
69738;SDS011;66905;51.012;4.724;2023-02-23T02:06:33;93.70;;;44.40;;
69738;SDS011;66905;51.012;4.724;2023-02-23T02:09:05;79.95;;;40.05;;
69738;SDS011;66905;51.012;4.724;2023-02-23T02:11:34;77.22;;;37.90;;
69738;SDS011;66905;51.012;4.724;2023-02-23T02:25:28;72.93;;;36.05;;
69738;SDS011;66905;51.012;4.724;2023-02-23T02:33:25;71.82;;;37.40;;
69738;SDS011;66905;51.012;4.724;2023-02-23T02:44:17;72.20;;;37.60;;
69738;SDS011;66905;51.012;4.724;2023-02-23T02:52:40;67.68;;;34.17;;
69738;SDS011;66905;51.012;4.724;2023-02-23T02:55:21;61.92;;;31.98;;
69738;SDS011;66905;51.012;4.724;2023-02-23T02:57:50;63.22;;;33.25;;
69738;SDS011;66905;51.012;4.724;2023-02-23T03:00:24;66.60;;;33.67;;
69738;SDS011;66905;51.012;4.724;2023-02-23T03:03:31;64.53;;;33.75;;
69738;SDS011;66905;51.012;4.724;2023-02-23T03:06:19;67.05;;;34.75;;
69738;SDS011;66905;51.012;4.724;2023-02-23T03:16:30;78.47;;;37.08;;
69738;SDS011;66905;51.012;4.724;2023-02-23T03:25:03;77.15;;;37.38;;
69738;SDS011;66905;51.012;4.724;2023-02-23T03:31:19;82.90;;;39.72;;
69738;SDS011;66905;51.012;4.724;2023-02-23T03:37:36;92.63;;;41.03;;
69738;SDS011;66905;51.012;4.724;2023-02-23T03:42:59;86.93;;;38.50;;
69738;SDS011;66905;51.012;4.724;2023-02-23T03:45:48;90.38;;;37.90;;
69738;SDS011;66905;51.012;4.724;2023-02-23T03:48:34;106.50;;;41.22;;
69738;SDS011;66905;51.012;4.724;2023-02-23T03:51:20;96.03;;;39.30;;
69738;SDS011;66905;51.012;4.724;2023-02-23T03:54:12;89.00;;;35.97;;
69738;SDS011;66905;51.012;4.724;2023-02-23T03:57:06;87.38;;;35.97;;
69738;SDS011;66905;51.012;4.724;2023-02-23T03:59:56;102.05;;;37.22;;
69738;SDS011;66905;51.012;4.724;2023-02-23T04:02:44;79.50;;;34.00;;
69738;SDS011;66905;51.012;4.724;2023-02-23T04:05:31;87.68;;;34.28;;
69738;SDS011;66905;51.012;4.724;2023-02-23T04:08:19;81.60;;;35.00;;
69738;SDS011;66905;51.012;4.724;2023-02-23T04:15:11;93.25;;;34.85;;
69738;SDS011;66905;51.012;4.724;2023-02-23T04:17:20;82.78;;;33.15;;
69738;SDS011;66905;51.012;4.724;2023-02-23T04:19:52;83.15;;;32.33;;
69738;SDS011;66905;51.012;4.724;2023-02-23T04:22:19;85.25;;;33.85;;
69738;SDS011;66905;51.012;4.724;2023-02-23T04:24:46;81.57;;;34.08;;
69738;SDS011;66905;51.012;4.724;2023-02-23T04:27:12;83.75;;;33.08;;
69738;SDS011;66905;51.012;4.724;2023-02-23T04:29:39;98.63;;;35.28;;
69738;SDS011;66905;51.012;4.724;2023-02-23T04:32:05;91.43;;;36.88;;
69738;SDS011;66905;51.012;4.724;2023-02-23T04:34:36;90.38;;;34.47;;
69738;SDS011;66905;51.012;4.724;2023-02-23T04:37:04;81.68;;;33.45;;
69738;SDS011;66905;51.012;4.724;2023-02-23T04:39:30;83.38;;;33.80;;
69738;SDS011;66905;51.012;4.724;2023-02-23T04:41:56;73.72;;;30.48;;
69738;SDS011;66905;51.012;4.724;2023-02-23T04:44:25;69.82;;;30.00;;
69738;SDS011;66905;51.012;4.724;2023-02-23T04:46:51;72.47;;;30.40;;
69738;SDS011;66905;51.012;4.724;2023-02-23T04:49:18;71.65;;;29.80;;
69738;SDS011;66905;51.012;4.724;2023-02-23T04:51:44;74.30;;;31.48;;
69738;SDS011;66905;51.012;4.724;2023-02-23T04:54:12;75.45;;;29.80;;
69738;SDS011;66905;51.012;4.724;2023-02-23T04:56:40;75.47;;;33.05;;
69738;SDS011;66905;51.012;4.724;2023-02-23T04:59:06;76.78;;;33.20;;
69738;SDS011;66905;51.012;4.724;2023-02-23T05:01:32;70.40;;;32.90;;
69738;SDS011;66905;51.012;4.724;2023-02-23T05:03:58;69.50;;;31.63;;
69738;SDS011;66905;51.012;4.724;2023-02-23T05:06:26;71.10;;;33.17;;
69738;SDS011;66905;51.012;4.724;2023-02-23T05:08:53;75.28;;;34.13;;
69738;SDS011;66905;51.012;4.724;2023-02-23T05:11:19;78.70;;;34.55;;
69738;SDS011;66905;51.012;4.724;2023-02-23T05:13:45;78.95;;;32.30;;
69738;SDS011;66905;51.012;4.724;2023-02-23T05:16:13;92.43;;;32.85;;
69738;SDS011;66905;51.012;4.724;2023-02-23T05:18:38;95.50;;;33.50;;
69738;SDS011;66905;51.012;4.724;2023-02-23T05:21:05;77.60;;;32.88;;
69738;SDS011;66905;51.012;4.724;2023-02-23T05:23:35;79.65;;;30.52;;
69738;SDS011;66905;51.012;4.724;2023-02-23T05:26:02;82.70;;;33.13;;
69738;SDS011;66905;51.012;4.724;2023-02-23T05:28:30;95.90;;;33.90;;
69738;SDS011;66905;51.012;4.724;2023-02-23T05:31:00;82.47;;;34.50;;
69738;SDS011;66905;51.012;4.724;2023-02-23T05:33:32;74.38;;;32.38;;
69738;SDS011;66905;51.012;4.724;2023-02-23T05:35:59;68.88;;;30.83;;
69738;SDS011;66905;51.012;4.724;2023-02-23T05:38:28;102.05;;;36.35;;
69738;SDS011;66905;51.012;4.724;2023-02-23T05:40:54;91.18;;;33.72;;
69738;SDS011;66905;51.012;4.724;2023-02-23T05:43:19;105.47;;;34.90;;
69738;SDS011;66905;51.012;4.724;2023-02-23T05:45:45;93.65;;;34.70;;
69738;SDS011;66905;51.012;4.724;2023-02-23T05:48:11;87.80;;;33.80;;
69738;SDS011;66905;51.012;4.724;2023-02-23T05:50:39;81.53;;;32.15;;
69738;SDS011;66905;51.012;4.724;2023-02-23T05:53:05;71.60;;;31.17;;
69738;SDS011;66905;51.012;4.724;2023-02-23T05:55:33;73.20;;;32.40;;
69738;SDS011;66905;51.012;4.724;2023-02-23T05:58:00;71.25;;;31.92;;
69738;SDS011;66905;51.012;4.724;2023-02-23T06:00:25;104.47;;;38.47;;
69738;SDS011;66905;51.012;4.724;2023-02-23T06:02:51;92.80;;;36.70;;
69738;SDS011;66905;51.012;4.724;2023-02-23T06:05:20;91.25;;;34.17;;
69738;SDS011;66905;51.012;4.724;2023-02-23T06:07:45;146.10;;;42.63;;
69738;SDS011;66905;51.012;4.724;2023-02-23T06:10:12;109.18;;;38.08;;
69738;SDS011;66905;51.012;4.724;2023-02-23T06:12:38;120.65;;;38.30;;
69738;SDS011;66905;51.012;4.724;2023-02-23T06:15:07;120.15;;;37.92;;
69738;SDS011;66905;51.012;4.724;2023-02-23T06:17:33;157.65;;;44.70;;
69738;SDS011;66905;51.012;4.724;2023-02-23T06:19:59;136.90;;;40.63;;
69738;SDS011;66905;51.012;4.724;2023-02-23T06:22:28;124.85;;;36.95;;
69738;SDS011;66905;51.012;4.724;2023-02-23T06:24:54;102.72;;;35.95;;
69738;SDS011;66905;51.012;4.724;2023-02-23T06:27:20;101.55;;;36.85;;
69738;SDS011;66905;51.012;4.724;2023-02-23T06:29:46;91.20;;;36.70;;
69738;SDS011;66905;51.012;4.724;2023-02-23T06:32:12;87.28;;;36.13;;
69738;SDS011;66905;51.012;4.724;2023-02-23T06:34:38;93.53;;;36.30;;
69738;SDS011;66905;51.012;4.724;2023-02-23T06:37:05;88.72;;;35.25;;
69738;SDS011;66905;51.012;4.724;2023-02-23T06:39:33;93.22;;;36.17;;
69738;SDS011;66905;51.012;4.724;2023-02-23T06:42:01;98.32;;;39.20;;
69738;SDS011;66905;51.012;4.724;2023-02-23T06:44:27;89.72;;;35.78;;
69738;SDS011;66905;51.012;4.724;2023-02-23T06:46:53;92.32;;;39.13;;
69738;SDS011;66905;51.012;4.724;2023-02-23T06:49:21;86.43;;;36.80;;
69738;SDS011;66905;51.012;4.724;2023-02-23T06:51:46;88.03;;;36.08;;
69738;SDS011;66905;51.012;4.724;2023-02-23T06:54:12;97.72;;;37.92;;
69738;SDS011;66905;51.012;4.724;2023-02-23T06:56:38;88.53;;;37.53;;
69738;SDS011;66905;51.012;4.724;2023-02-23T06:59:05;92.03;;;35.20;;
69738;SDS011;66905;51.012;4.724;2023-02-23T07:01:31;84.15;;;34.50;;
69738;SDS011;66905;51.012;4.724;2023-02-23T07:03:57;76.85;;;33.08;;
69738;SDS011;66905;51.012;4.724;2023-02-23T07:06:25;87.30;;;35.05;;
69738;SDS011;66905;51.012;4.724;2023-02-23T07:08:51;81.18;;;34.33;;
69738;SDS011;66905;51.012;4.724;2023-02-23T07:11:16;87.35;;;35.15;;
69738;SDS011;66905;51.012;4.724;2023-02-23T07:13:43;80.55;;;34.85;;
69738;SDS011;66905;51.012;4.724;2023-02-23T07:16:09;75.38;;;32.63;;
69738;SDS011;66905;51.012;4.724;2023-02-23T07:18:38;77.40;;;33.50;;
69738;SDS011;66905;51.012;4.724;2023-02-23T07:21:04;75.60;;;31.98;;
69738;SDS011;66905;51.012;4.724;2023-02-23T07:23:30;82.68;;;35.17;;
69738;SDS011;66905;51.012;4.724;2023-02-23T07:25:56;81.93;;;34.38;;
69738;SDS011;66905;51.012;4.724;2023-02-23T07:28:22;86.72;;;34.30;;
69738;SDS011;66905;51.012;4.724;2023-02-23T07:30:48;84.75;;;35.25;;
69738;SDS011;66905;51.012;4.724;2023-02-23T07:33:14;81.55;;;34.42;;
69738;SDS011;66905;51.012;4.724;2023-02-23T07:35:40;82.28;;;35.45;;
69738;SDS011;66905;51.012;4.724;2023-02-23T07:38:07;78.97;;;34.75;;
69738;SDS011;66905;51.012;4.724;2023-02-23T07:40:36;86.18;;;36.00;;
69738;SDS011;66905;51.012;4.724;2023-02-23T07:43:04;91.22;;;36.75;;
69738;SDS011;66905;51.012;4.724;2023-02-23T07:45:31;80.95;;;35.85;;
69738;SDS011;66905;51.012;4.724;2023-02-23T07:47:57;86.18;;;37.30;;
69738;SDS011;66905;51.012;4.724;2023-02-23T07:50:24;84.55;;;35.58;;
69738;SDS011;66905;51.012;4.724;2023-02-23T07:52:52;86.80;;;37.75;;
69738;SDS011;66905;51.012;4.724;2023-02-23T07:55:18;86.43;;;37.10;;
69738;SDS011;66905;51.012;4.724;2023-02-23T07:57:46;81.32;;;36.78;;
69738;SDS011;66905;51.012;4.724;2023-02-23T08:00:12;93.65;;;39.60;;
69738;SDS011;66905;51.012;4.724;2023-02-23T08:02:39;89.63;;;36.42;;
69738;SDS011;66905;51.012;4.724;2023-02-23T08:05:05;77.65;;;35.13;;
69738;SDS011;66905;51.012;4.724;2023-02-23T08:07:33;96.70;;;38.50;;
69738;SDS011;66905;51.012;4.724;2023-02-23T08:09:59;85.93;;;36.17;;
69738;SDS011;66905;51.012;4.724;2023-02-23T08:12:25;76.78;;;34.92;;
69738;SDS011;66905;51.012;4.724;2023-02-23T08:14:50;80.55;;;35.53;;
69738;SDS011;66905;51.012;4.724;2023-02-23T08:17:17;83.55;;;35.20;;
69738;SDS011;66905;51.012;4.724;2023-02-23T08:19:43;82.93;;;36.80;;
69738;SDS011;66905;51.012;4.724;2023-02-23T08:22:09;96.70;;;36.83;;
69738;SDS011;66905;51.012;4.724;2023-02-23T08:24:35;85.97;;;35.58;;
69738;SDS011;66905;51.012;4.724;2023-02-23T08:27:03;87.43;;;36.55;;
69738;SDS011;66905;51.012;4.724;2023-02-23T08:29:29;87.38;;;38.10;;
69738;SDS011;66905;51.012;4.724;2023-02-23T08:31:55;92.68;;;39.13;;
69738;SDS011;66905;51.012;4.724;2023-02-23T08:34:21;90.93;;;38.55;;
69738;SDS011;66905;51.012;4.724;2023-02-23T08:36:48;88.90;;;37.78;;
69738;SDS011;66905;51.012;4.724;2023-02-23T08:39:14;85.93;;;36.75;;
69738;SDS011;66905;51.012;4.724;2023-02-23T08:41:42;101.78;;;38.72;;
69738;SDS011;66905;51.012;4.724;2023-02-23T08:44:07;95.47;;;39.42;;
69738;SDS011;66905;51.012;4.724;2023-02-23T08:46:33;96.57;;;39.60;;
69738;SDS011;66905;51.012;4.724;2023-02-23T08:48:59;91.32;;;37.83;;
69738;SDS011;66905;51.012;4.724;2023-02-23T08:51:25;90.05;;;37.03;;
69738;SDS011;66905;51.012;4.724;2023-02-23T08:53:53;80.95;;;34.85;;
69738;SDS011;66905;51.012;4.724;2023-02-23T08:56:21;85.28;;;37.40;;
69738;SDS011;66905;51.012;4.724;2023-02-23T08:58:49;82.70;;;35.38;;
69738;SDS011;66905;51.012;4.724;2023-02-23T09:01:18;83.75;;;34.22;;
69738;SDS011;66905;51.012;4.724;2023-02-23T09:03:45;80.85;;;34.17;;
69738;SDS011;66905;51.012;4.724;2023-02-23T09:06:15;95.57;;;36.67;;
69738;SDS011;66905;51.012;4.724;2023-02-23T09:08:42;85.75;;;35.47;;
69738;SDS011;66905;51.012;4.724;2023-02-23T09:11:08;75.88;;;34.25;;
69738;SDS011;66905;51.012;4.724;2023-02-23T09:13:34;80.07;;;34.25;;
69738;SDS011;66905;51.012;4.724;2023-02-23T09:16:00;86.38;;;36.90;;
69738;SDS011;66905;51.012;4.724;2023-02-23T09:18:27;85.40;;;37.83;;
69738;SDS011;66905;51.012;4.724;2023-02-23T09:20:56;76.60;;;35.00;;
69738;SDS011;66905;51.012;4.724;2023-02-23T09:23:30;83.20;;;34.95;;
69738;SDS011;66905;51.012;4.724;2023-02-23T09:26:03;92.38;;;38.28;;
69738;SDS011;66905;51.012;4.724;2023-02-23T09:28:32;78.82;;;33.92;;
69738;SDS011;66905;51.012;4.724;2023-02-23T09:31:09;79.28;;;33.25;;
69738;SDS011;66905;51.012;4.724;2023-02-23T09:33:42;71.40;;;32.38;;
69738;SDS011;66905;51.012;4.724;2023-02-23T09:36:09;75.50;;;34.05;;
69738;SDS011;66905;51.012;4.724;2023-02-23T09:38:44;78.38;;;34.75;;
69738;SDS011;66905;51.012;4.724;2023-02-23T09:41:25;71.32;;;32.63;;
69738;SDS011;66905;51.012;4.724;2023-02-23T09:44:25;71.05;;;31.38;;
69738;SDS011;66905;51.012;4.724;2023-02-23T09:47:08;67.55;;;30.75;;
69738;SDS011;66905;51.012;4.724;2023-02-23T09:49:43;61.47;;;28.23;;
69738;SDS011;66905;51.012;4.724;2023-02-23T09:55:04;53.35;;;26.33;;
69738;SDS011;66905;51.012;4.724;2023-02-23T09:57:36;64.60;;;27.95;;
69738;SDS011;66905;51.012;4.724;2023-02-23T10:00:14;61.13;;;27.27;;
69738;SDS011;66905;51.012;4.724;2023-02-23T10:02:53;61.92;;;29.00;;
69738;SDS011;66905;51.012;4.724;2023-02-23T10:05:21;54.08;;;25.23;;
69738;SDS011;66905;51.012;4.724;2023-02-23T10:07:55;60.40;;;26.95;;
69738;SDS011;66905;51.012;4.724;2023-02-23T10:13:20;56.30;;;25.90;;
69738;SDS011;66905;51.012;4.724;2023-02-23T10:16:19;55.22;;;25.17;;
69738;SDS011;66905;51.012;4.724;2023-02-23T10:19:21;57.47;;;24.75;;
69738;SDS011;66905;51.012;4.724;2023-02-23T10:22:22;49.13;;;24.05;;
69738;SDS011;66905;51.012;4.724;2023-02-23T10:24:55;54.63;;;24.25;;
69738;SDS011;66905;51.012;4.724;2023-02-23T10:27:35;48.58;;;24.02;;
69738;SDS011;66905;51.012;4.724;2023-02-23T10:30:13;47.85;;;23.20;;
69738;SDS011;66905;51.012;4.724;2023-02-23T10:35:28;44.08;;;20.63;;
69738;SDS011;66905;51.012;4.724;2023-02-23T10:37:58;43.97;;;21.45;;
69738;SDS011;66905;51.012;4.724;2023-02-23T10:40:26;42.60;;;20.75;;
69738;SDS011;66905;51.012;4.724;2023-02-23T10:42:56;44.00;;;21.23;;
69738;SDS011;66905;51.012;4.724;2023-02-23T10:45:24;44.03;;;21.65;;
69738;SDS011;66905;51.012;4.724;2023-02-23T10:47:59;40.78;;;20.98;;
69738;SDS011;66905;51.012;4.724;2023-02-23T10:50:28;42.50;;;21.40;;
69738;SDS011;66905;51.012;4.724;2023-02-23T10:53:41;42.92;;;21.88;;
69738;SDS011;66905;51.012;4.724;2023-02-23T10:55:58;40.55;;;21.10;;
69738;SDS011;66905;51.012;4.724;2023-02-23T10:58:27;42.13;;;21.45;;
69738;SDS011;66905;51.012;4.724;2023-02-23T11:01:03;43.28;;;22.80;;
69738;SDS011;66905;51.012;4.724;2023-02-23T11:06:25;43.72;;;21.60;;
69738;SDS011;66905;51.012;4.724;2023-02-23T11:08:55;47.15;;;23.15;;
69738;SDS011;66905;51.012;4.724;2023-02-23T11:11:24;44.92;;;21.13;;
69738;SDS011;66905;51.012;4.724;2023-02-23T11:13:56;41.23;;;22.97;;
69738;SDS011;66905;51.012;4.724;2023-02-23T11:19:02;44.08;;;22.55;;
69738;SDS011;66905;51.012;4.724;2023-02-23T11:21:33;42.38;;;21.58;;
69738;SDS011;66905;51.012;4.724;2023-02-23T11:24:19;45.53;;;22.30;;
69738;SDS011;66905;51.012;4.724;2023-02-23T11:26:55;38.92;;;21.83;;
69738;SDS011;66905;51.012;4.724;2023-02-23T11:29:41;41.22;;;21.98;;
69738;SDS011;66905;51.012;4.724;2023-02-23T11:32:11;43.95;;;22.40;;
69738;SDS011;66905;51.012;4.724;2023-02-23T11:34:40;43.63;;;22.25;;
69738;SDS011;66905;51.012;4.724;2023-02-23T11:42:20;38.85;;;21.23;;
69738;SDS011;66905;51.012;4.724;2023-02-23T11:47:47;45.05;;;22.92;;
69738;SDS011;66905;51.012;4.724;2023-02-23T11:52:53;47.63;;;24.67;;
69738;SDS011;66905;51.012;4.724;2023-02-23T11:55:31;49.15;;;25.17;;
69738;SDS011;66905;51.012;4.724;2023-02-23T11:58:20;43.90;;;23.73;;
69738;SDS011;66905;51.012;4.724;2023-02-23T12:01:03;47.75;;;25.35;;
69738;SDS011;66905;51.012;4.724;2023-02-23T12:03:48;51.08;;;25.70;;
69738;SDS011;66905;51.012;4.724;2023-02-23T12:06:28;47.25;;;23.50;;
69738;SDS011;66905;51.012;4.724;2023-02-23T12:08:54;49.30;;;24.80;;
69738;SDS011;66905;51.012;4.724;2023-02-23T12:11:28;54.63;;;26.75;;
69738;SDS011;66905;51.012;4.724;2023-02-23T12:14:03;53.83;;;26.27;;
69738;SDS011;66905;51.012;4.724;2023-02-23T12:16:46;54.20;;;27.20;;
69738;SDS011;66905;51.012;4.724;2023-02-23T12:22:18;60.25;;;29.63;;
69738;SDS011;66905;51.012;4.724;2023-02-23T12:24:53;56.33;;;27.95;;
69738;SDS011;66905;51.012;4.724;2023-02-23T12:30:11;57.25;;;28.55;;
69738;SDS011;66905;51.012;4.724;2023-02-23T12:32:51;56.38;;;28.98;;
69738;SDS011;66905;51.012;4.724;2023-02-23T12:35:30;60.15;;;27.38;;
69738;SDS011;66905;51.012;4.724;2023-02-23T12:41:02;52.67;;;25.73;;
69738;SDS011;66905;51.012;4.724;2023-02-23T12:43:36;56.70;;;27.65;;
69738;SDS011;66905;51.012;4.724;2023-02-23T12:46:27;50.10;;;25.02;;
69738;SDS011;66905;51.012;4.724;2023-02-23T12:49:18;53.88;;;27.30;;
69738;SDS011;66905;51.012;4.724;2023-02-23T12:51:59;51.67;;;24.70;;
69738;SDS011;66905;51.012;4.724;2023-02-23T12:54:33;49.75;;;25.17;;
69738;SDS011;66905;51.012;4.724;2023-02-23T12:57:09;49.35;;;26.00;;
69738;SDS011;66905;51.012;4.724;2023-02-23T13:03:04;49.95;;;26.05;;
69738;SDS011;66905;51.012;4.724;2023-02-23T13:05:47;47.25;;;24.60;;
69738;SDS011;66905;51.012;4.724;2023-02-23T13:08:32;46.28;;;25.83;;
69738;SDS011;66905;51.012;4.724;2023-02-23T13:16:51;51.78;;;26.40;;
69738;SDS011;66905;51.012;4.724;2023-02-23T13:25:02;61.90;;;26.10;;
69738;SDS011;66905;51.012;4.724;2023-02-23T13:27:49;51.22;;;23.90;;
69738;SDS011;66905;51.012;4.724;2023-02-23T13:30:19;55.20;;;27.73;;
69738;SDS011;66905;51.012;4.724;2023-02-23T13:32:47;51.47;;;24.48;;
69738;SDS011;66905;51.012;4.724;2023-02-23T13:35:14;50.35;;;23.50;;
69738;SDS011;66905;51.012;4.724;2023-02-23T13:43:12;48.97;;;21.83;;
69738;SDS011;66905;51.012;4.724;2023-02-23T13:56:25;46.13;;;22.58;;
69738;SDS011;66905;51.012;4.724;2023-02-23T13:58:53;47.22;;;23.23;;
69738;SDS011;66905;51.012;4.724;2023-02-23T14:01:37;47.45;;;24.10;;
69738;SDS011;66905;51.012;4.724;2023-02-23T14:06:51;42.20;;;21.58;;
69738;SDS011;66905;51.012;4.724;2023-02-23T14:09:23;47.72;;;21.88;;
69738;SDS011;66905;51.012;4.724;2023-02-23T14:12:15;46.13;;;20.48;;
69738;SDS011;66905;51.012;4.724;2023-02-23T14:14:47;36.58;;;19.73;;
69738;SDS011;66905;51.012;4.724;2023-02-23T14:22:16;40.38;;;18.92;;
69738;SDS011;66905;51.012;4.724;2023-02-23T14:24:46;39.00;;;18.73;;
69738;SDS011;66905;51.012;4.724;2023-02-23T14:27:33;45.35;;;21.80;;
69738;SDS011;66905;51.012;4.724;2023-02-23T14:32:44;38.90;;;20.25;;
69738;SDS011;66905;51.012;4.724;2023-02-23T14:38:43;38.97;;;20.35;;
69738;SDS011;66905;51.012;4.724;2023-02-23T14:46:07;35.55;;;18.00;;
69738;SDS011;66905;51.012;4.724;2023-02-23T14:48:54;34.67;;;19.08;;
69738;SDS011;66905;51.012;4.724;2023-02-23T14:52:18;40.42;;;17.95;;
69738;SDS011;66905;51.012;4.724;2023-02-23T14:56:59;31.13;;;16.35;;
69738;SDS011;66905;51.012;4.724;2023-02-23T14:59:28;30.55;;;16.45;;
69738;SDS011;66905;51.012;4.724;2023-02-23T15:02:03;28.52;;;15.45;;
69738;SDS011;66905;51.012;4.724;2023-02-23T15:04:50;29.83;;;16.33;;
69738;SDS011;66905;51.012;4.724;2023-02-23T15:07:17;26.15;;;15.23;;
69738;SDS011;66905;51.012;4.724;2023-02-23T15:09:56;29.23;;;15.00;;
69738;SDS011;66905;51.012;4.724;2023-02-23T15:12:23;24.88;;;13.80;;
69738;SDS011;66905;51.012;4.724;2023-02-23T15:15:01;28.30;;;14.23;;
69738;SDS011;66905;51.012;4.724;2023-02-23T15:17:29;24.75;;;14.23;;
69738;SDS011;66905;51.012;4.724;2023-02-23T15:19:58;22.98;;;13.90;;
69738;SDS011;66905;51.012;4.724;2023-02-23T15:22:29;18.00;;;12.13;;
69738;SDS011;66905;51.012;4.724;2023-02-23T15:25:01;21.58;;;12.52;;
69738;SDS011;66905;51.012;4.724;2023-02-23T15:27:36;19.45;;;12.15;;
69738;SDS011;66905;51.012;4.724;2023-02-23T15:33:12;12.30;;;9.80;;
69738;SDS011;66905;51.012;4.724;2023-02-23T15:35:46;14.00;;;9.30;;
69738;SDS011;66905;51.012;4.724;2023-02-23T15:38:26;12.40;;;9.85;;
69738;SDS011;66905;51.012;4.724;2023-02-23T15:40:56;16.48;;;11.15;;
69738;SDS011;66905;51.012;4.724;2023-02-23T15:43:24;14.57;;;10.23;;
69738;SDS011;66905;51.012;4.724;2023-02-23T15:45:54;16.58;;;10.50;;
69738;SDS011;66905;51.012;4.724;2023-02-23T15:48:25;14.65;;;9.88;;
69738;SDS011;66905;51.012;4.724;2023-02-23T15:51:05;13.07;;;9.80;;
69738;SDS011;66905;51.012;4.724;2023-02-23T15:53:32;15.52;;;10.70;;
69738;SDS011;66905;51.012;4.724;2023-02-23T15:56:14;16.02;;;11.35;;
69738;SDS011;66905;51.012;4.724;2023-02-23T15:58:48;16.58;;;11.10;;
69738;SDS011;66905;51.012;4.724;2023-02-23T16:01:22;19.67;;;11.00;;
69738;SDS011;66905;51.012;4.724;2023-02-23T16:11:53;16.00;;;10.02;;
69738;SDS011;66905;51.012;4.724;2023-02-23T16:14:27;18.67;;;11.20;;
69738;SDS011;66905;51.012;4.724;2023-02-23T16:17:04;17.33;;;10.40;;
69738;SDS011;66905;51.012;4.724;2023-02-23T16:19:30;18.42;;;11.80;;
69738;SDS011;66905;51.012;4.724;2023-02-23T16:21:56;18.35;;;11.25;;
69738;SDS011;66905;51.012;4.724;2023-02-23T16:24:25;17.35;;;10.20;;
69738;SDS011;66905;51.012;4.724;2023-02-23T16:26:54;17.95;;;10.45;;
69738;SDS011;66905;51.012;4.724;2023-02-23T16:29:35;18.13;;;10.15;;
69738;SDS011;66905;51.012;4.724;2023-02-23T16:32:18;22.00;;;12.20;;
69738;SDS011;66905;51.012;4.724;2023-02-23T16:34:48;19.42;;;11.00;;
69738;SDS011;66905;51.012;4.724;2023-02-23T16:37:23;20.85;;;10.43;;
69738;SDS011;66905;51.012;4.724;2023-02-23T16:39:51;21.55;;;11.90;;
69738;SDS011;66905;51.012;4.724;2023-02-23T16:45:01;22.25;;;10.82;;
69738;SDS011;66905;51.012;4.724;2023-02-23T16:47:31;19.67;;;11.25;;
69738;SDS011;66905;51.012;4.724;2023-02-23T16:50:23;16.73;;;11.02;;
69738;SDS011;66905;51.012;4.724;2023-02-23T16:52:50;16.50;;;10.23;;
69738;SDS011;66905;51.012;4.724;2023-02-23T16:55:22;26.30;;;11.93;;
69738;SDS011;66905;51.012;4.724;2023-02-23T16:57:50;15.85;;;9.38;;
69738;SDS011;66905;51.012;4.724;2023-02-23T17:00:32;20.55;;;10.32;;
69738;SDS011;66905;51.012;4.724;2023-02-23T17:02:58;16.90;;;9.27;;
69738;SDS011;66905;51.012;4.724;2023-02-23T17:05:29;14.10;;;8.23;;
69738;SDS011;66905;51.012;4.724;2023-02-23T17:07:55;13.35;;;7.97;;
69738;SDS011;66905;51.012;4.724;2023-02-23T17:10:24;12.20;;;7.72;;
69738;SDS011;66905;51.012;4.724;2023-02-23T17:12:57;10.00;;;6.50;;
69738;SDS011;66905;51.012;4.724;2023-02-23T17:15:28;13.63;;;8.05;;
69738;SDS011;66905;51.012;4.724;2023-02-23T17:17:57;12.70;;;7.85;;
69738;SDS011;66905;51.012;4.724;2023-02-23T17:20:24;12.40;;;7.13;;
69738;SDS011;66905;51.012;4.724;2023-02-23T17:22:51;12.50;;;7.50;;
69738;SDS011;66905;51.012;4.724;2023-02-23T17:25:19;12.48;;;7.75;;
69738;SDS011;66905;51.012;4.724;2023-02-23T17:27:47;12.70;;;7.20;;